CheckWX is a tool to help pilots better visualize weather data.  It is not intended as a substitute for an official pre-flight weather briefing.

06:44:15 UTC

KDET TAF
Coleman A Young Municipal Airport
Detroit, Michigan, USA
KDET 160525Z 1606/1706 04005KT 5SM -DZ BR OVC004 TEMPO 1608/1612 OVC008 FM161200 05006KT P6SM VCSH OVC010 FM162000 03005KT P6SM SCT015 OVC025 FM170200 VRB04KT P6SM BKN025 OVC050

Jun-16@
06:00 UTC

Jun-16 @ 06:00 UTC

Jun-16@
12:00 UTC

Jun-16 @ 12:00 UTC

KDET 160525Z 1606/1706 04005KT 5SM -DZ BR OVC004
Wind
  • 040° at 5 KTS
Conditions
Light Drizzle, Mist
Cloud Levels
  • Overcast at 400' AGL

Jun-16@
08:00 UTC

Jun-16 @ 08:00 UTC

Jun-16@
12:00 UTC

Jun-16 @ 12:00 UTC

TEMPO 1608/1612 OVC008

Temporary

Temporary Changes expected for less than half the time period

Cloud Levels
  • Overcast at 800' AGL

Jun-16@
12:00 UTC

Jun-16 @ 12:00 UTC

Jun-16@
20:00 UTC

Jun-16 @ 20:00 UTC

FM161200 05006KT P6SM VCSH OVC010

From

From Standard forecast or significant change

Wind
  • 050° at 6 KTS
Cloud Levels
  • Overcast at 1,000' AGL

Jun-16@
20:00 UTC

Jun-16 @ 20:00 UTC

Jun-17@
02:00 UTC

Jun-17 @ 02:00 UTC

FM162000 03005KT P6SM SCT015 OVC025

From

From Standard forecast or significant change

Wind
  • 030° at 5 KTS
Cloud Levels
  • Scattered at 1,500' AGL
  • Overcast at 2,500' AGL

Jun-17@
02:00 UTC

Jun-17 @ 02:00 UTC

Jun-17@
06:00 UTC

Jun-17 @ 06:00 UTC

FM170200 VRB04KT P6SM BKN025 OVC050

From

From Standard forecast or significant change

Wind
  • Variable at 4 KTS
Cloud Levels
  • Broken at 2,500' AGL
  • Overcast at 5,000' AGL